sensor_id;sensor_type;location;lat;lon;timestamp;P1;durP1;ratioP1;P2;durP2;ratioP2
22646;SDS011;11490;42.726;23.268;2023-05-21T00:02:10;11.45;;;6.25;;
22646;SDS011;11490;42.726;23.268;2023-05-21T00:04:39;12.98;;;7.55;;
22646;SDS011;11490;42.726;23.268;2023-05-21T00:07:08;11.02;;;6.63;;
22646;SDS011;11490;42.726;23.268;2023-05-21T00:09:34;10.13;;;6.10;;
22646;SDS011;11490;42.726;23.268;2023-05-21T00:12:02;9.85;;;5.60;;
22646;SDS011;11490;42.726;23.268;2023-05-21T00:14:28;11.15;;;7.05;;
22646;SDS011;11490;42.726;23.268;2023-05-21T00:16:53;9.38;;;6.55;;
22646;SDS011;11490;42.726;23.268;2023-05-21T00:19:19;8.98;;;6.32;;
22646;SDS011;11490;42.726;23.268;2023-05-21T00:21:44;7.85;;;5.82;;
22646;SDS011;11490;42.726;23.268;2023-05-21T00:24:10;11.35;;;6.32;;
22646;SDS011;11490;42.726;23.268;2023-05-21T00:26:36;13.25;;;6.38;;
22646;SDS011;11490;42.726;23.268;2023-05-21T00:29:01;8.88;;;5.60;;
22646;SDS011;11490;42.726;23.268;2023-05-21T00:31:27;10.82;;;6.70;;
22646;SDS011;11490;42.726;23.268;2023-05-21T00:33:52;8.40;;;5.35;;
22646;SDS011;11490;42.726;23.268;2023-05-21T00:36:18;10.25;;;5.18;;
22646;SDS011;11490;42.726;23.268;2023-05-21T00:38:47;8.55;;;5.55;;
22646;SDS011;11490;42.726;23.268;2023-05-21T00:41:13;8.02;;;5.80;;
22646;SDS011;11490;42.726;23.268;2023-05-21T00:43:39;11.10;;;6.10;;
22646;SDS011;11490;42.726;23.268;2023-05-21T00:46:14;11.10;;;5.97;;
22646;SDS011;11490;42.726;23.268;2023-05-21T00:48:43;8.73;;;5.60;;
22646;SDS011;11490;42.726;23.268;2023-05-21T00:51:10;9.55;;;5.38;;
22646;SDS011;11490;42.726;23.268;2023-05-21T00:53:37;9.52;;;5.68;;
22646;SDS011;11490;42.726;23.268;2023-05-21T00:56:03;13.55;;;5.43;;
22646;SDS011;11490;42.726;23.268;2023-05-21T00:58:30;8.02;;;5.25;;
22646;SDS011;11490;42.726;23.268;2023-05-21T01:00:57;10.00;;;5.38;;
22646;SDS011;11490;42.726;23.268;2023-05-21T01:03:27;7.55;;;5.13;;
22646;SDS011;11490;42.726;23.268;2023-05-21T01:06:02;8.85;;;5.10;;
22646;SDS011;11490;42.726;23.268;2023-05-21T01:08:29;11.98;;;5.95;;
22646;SDS011;11490;42.726;23.268;2023-05-21T01:10:54;10.27;;;5.95;;
22646;SDS011;11490;42.726;23.268;2023-05-21T01:13:21;8.85;;;5.07;;
22646;SDS011;11490;42.726;23.268;2023-05-21T01:15:48;9.13;;;5.88;;
22646;SDS011;11490;42.726;23.268;2023-05-21T01:18:14;9.30;;;5.90;;
22646;SDS011;11490;42.726;23.268;2023-05-21T01:20:40;8.18;;;6.00;;
22646;SDS011;11490;42.726;23.268;2023-05-21T01:23:06;9.43;;;5.40;;
22646;SDS011;11490;42.726;23.268;2023-05-21T01:25:33;9.90;;;6.45;;
22646;SDS011;11490;42.726;23.268;2023-05-21T01:27:59;10.45;;;6.70;;
22646;SDS011;11490;42.726;23.268;2023-05-21T01:30:24;8.68;;;5.72;;
22646;SDS011;11490;42.726;23.268;2023-05-21T01:33:01;9.85;;;6.00;;
22646;SDS011;11490;42.726;23.268;2023-05-21T01:35:29;10.43;;;5.75;;
22646;SDS011;11490;42.726;23.268;2023-05-21T01:40:54;9.68;;;6.07;;
22646;SDS011;11490;42.726;23.268;2023-05-21T01:43:27;11.43;;;5.53;;
22646;SDS011;11490;42.726;23.268;2023-05-21T01:45:55;13.82;;;6.30;;
22646;SDS011;11490;42.726;23.268;2023-05-21T01:48:22;8.27;;;4.85;;
22646;SDS011;11490;42.726;23.268;2023-05-21T01:50:50;11.18;;;5.32;;
22646;SDS011;11490;42.726;23.268;2023-05-21T01:53:19;10.20;;;6.32;;
22646;SDS011;11490;42.726;23.268;2023-05-21T01:55:45;8.00;;;5.65;;
22646;SDS011;11490;42.726;23.268;2023-05-21T01:58:11;18.30;;;6.40;;
22646;SDS011;11490;42.726;23.268;2023-05-21T02:00:36;8.52;;;6.45;;
22646;SDS011;11490;42.726;23.268;2023-05-21T02:03:03;8.82;;;5.22;;
22646;SDS011;11490;42.726;23.268;2023-05-21T02:05:29;8.07;;;5.72;;
22646;SDS011;11490;42.726;23.268;2023-05-21T02:07:55;10.10;;;5.00;;
22646;SDS011;11490;42.726;23.268;2023-05-21T02:10:21;11.20;;;5.70;;
22646;SDS011;11490;42.726;23.268;2023-05-21T02:12:47;8.38;;;5.97;;
22646;SDS011;11490;42.726;23.268;2023-05-21T02:15:12;9.25;;;5.70;;
22646;SDS011;11490;42.726;23.268;2023-05-21T02:17:42;8.48;;;4.60;;
22646;SDS011;11490;42.726;23.268;2023-05-21T02:20:08;9.15;;;5.93;;
22646;SDS011;11490;42.726;23.268;2023-05-21T02:22:41;8.57;;;6.00;;
22646;SDS011;11490;42.726;23.268;2023-05-21T02:25:10;10.73;;;6.45;;
22646;SDS011;11490;42.726;23.268;2023-05-21T02:27:37;13.63;;;6.85;;
22646;SDS011;11490;42.726;23.268;2023-05-21T02:30:04;13.48;;;7.25;;
22646;SDS011;11490;42.726;23.268;2023-05-21T02:32:31;11.77;;;6.78;;
22646;SDS011;11490;42.726;23.268;2023-05-21T02:34:57;9.13;;;6.30;;
22646;SDS011;11490;42.726;23.268;2023-05-21T02:37:24;22.65;;;7.68;;
22646;SDS011;11490;42.726;23.268;2023-05-21T02:39:51;13.85;;;6.78;;
22646;SDS011;11490;42.726;23.268;2023-05-21T02:42:17;15.35;;;7.20;;
22646;SDS011;11490;42.726;23.268;2023-05-21T02:44:43;16.83;;;7.93;;
22646;SDS011;11490;42.726;23.268;2023-05-21T02:47:08;14.20;;;7.15;;
22646;SDS011;11490;42.726;23.268;2023-05-21T02:49:34;18.63;;;7.55;;
22646;SDS011;11490;42.726;23.268;2023-05-21T02:51:59;12.75;;;6.53;;
22646;SDS011;11490;42.726;23.268;2023-05-21T02:54:25;13.40;;;7.00;;
22646;SDS011;11490;42.726;23.268;2023-05-21T02:56:50;9.30;;;6.55;;
22646;SDS011;11490;42.726;23.268;2023-05-21T02:59:16;13.30;;;6.47;;
22646;SDS011;11490;42.726;23.268;2023-05-21T03:01:41;11.63;;;7.03;;
22646;SDS011;11490;42.726;23.268;2023-05-21T03:04:08;15.05;;;6.85;;
22646;SDS011;11490;42.726;23.268;2023-05-21T03:06:34;18.55;;;8.48;;
22646;SDS011;11490;42.726;23.268;2023-05-21T03:08:59;13.35;;;7.03;;
22646;SDS011;11490;42.726;23.268;2023-05-21T03:11:24;15.35;;;8.40;;
22646;SDS011;11490;42.726;23.268;2023-05-21T03:13:50;14.77;;;7.18;;
22646;SDS011;11490;42.726;23.268;2023-05-21T03:16:15;9.90;;;5.72;;
22646;SDS011;11490;42.726;23.268;2023-05-21T03:18:41;10.82;;;6.40;;
22646;SDS011;11490;42.726;23.268;2023-05-21T03:21:08;18.23;;;6.88;;
22646;SDS011;11490;42.726;23.268;2023-05-21T03:23:33;12.02;;;6.30;;
22646;SDS011;11490;42.726;23.268;2023-05-21T03:25:58;13.25;;;6.95;;
22646;SDS011;11490;42.726;23.268;2023-05-21T03:28:24;11.60;;;5.88;;
22646;SDS011;11490;42.726;23.268;2023-05-21T03:30:50;9.30;;;5.05;;
22646;SDS011;11490;42.726;23.268;2023-05-21T03:33:16;9.70;;;5.32;;
22646;SDS011;11490;42.726;23.268;2023-05-21T03:35:41;10.32;;;6.22;;
22646;SDS011;11490;42.726;23.268;2023-05-21T03:38:06;8.27;;;5.90;;
22646;SDS011;11490;42.726;23.268;2023-05-21T03:40:32;8.57;;;5.35;;
22646;SDS011;11490;42.726;23.268;2023-05-21T03:42:57;9.95;;;5.45;;
22646;SDS011;11490;42.726;23.268;2023-05-21T03:45:23;9.05;;;5.75;;
22646;SDS011;11490;42.726;23.268;2023-05-21T03:47:48;7.65;;;5.03;;
22646;SDS011;11490;42.726;23.268;2023-05-21T03:50:13;9.98;;;5.60;;
22646;SDS011;11490;42.726;23.268;2023-05-21T03:52:39;8.75;;;5.68;;
22646;SDS011;11490;42.726;23.268;2023-05-21T03:55:05;9.48;;;6.30;;
22646;SDS011;11490;42.726;23.268;2023-05-21T03:57:30;12.07;;;6.80;;
22646;SDS011;11490;42.726;23.268;2023-05-21T03:59:56;9.95;;;6.18;;
22646;SDS011;11490;42.726;23.268;2023-05-21T04:02:24;9.63;;;6.28;;
22646;SDS011;11490;42.726;23.268;2023-05-21T04:04:50;11.57;;;7.13;;
22646;SDS011;11490;42.726;23.268;2023-05-21T04:07:17;11.38;;;5.88;;
22646;SDS011;11490;42.726;23.268;2023-05-21T04:09:43;11.85;;;7.45;;
22646;SDS011;11490;42.726;23.268;2023-05-21T04:12:08;13.95;;;8.55;;
22646;SDS011;11490;42.726;23.268;2023-05-21T04:14:34;10.95;;;6.55;;
22646;SDS011;11490;42.726;23.268;2023-05-21T04:17:00;8.02;;;6.43;;
22646;SDS011;11490;42.726;23.268;2023-05-21T04:19:29;14.32;;;6.80;;
22646;SDS011;11490;42.726;23.268;2023-05-21T04:21:54;11.93;;;6.72;;
22646;SDS011;11490;42.726;23.268;2023-05-21T04:24:22;14.57;;;8.13;;
22646;SDS011;11490;42.726;23.268;2023-05-21T04:26:47;13.77;;;7.75;;
22646;SDS011;11490;42.726;23.268;2023-05-21T04:29:13;13.43;;;7.97;;
22646;SDS011;11490;42.726;23.268;2023-05-21T04:31:42;10.43;;;7.13;;
22646;SDS011;11490;42.726;23.268;2023-05-21T04:34:07;18.95;;;8.38;;
22646;SDS011;11490;42.726;23.268;2023-05-21T04:36:33;10.65;;;7.60;;
22646;SDS011;11490;42.726;23.268;2023-05-21T04:38:58;10.38;;;6.43;;
22646;SDS011;11490;42.726;23.268;2023-05-21T04:41:24;11.68;;;6.50;;
22646;SDS011;11490;42.726;23.268;2023-05-21T04:43:50;9.00;;;6.43;;
22646;SDS011;11490;42.726;23.268;2023-05-21T04:46:19;11.82;;;8.32;;
22646;SDS011;11490;42.726;23.268;2023-05-21T04:48:55;17.42;;;9.80;;
22646;SDS011;11490;42.726;23.268;2023-05-21T04:51:22;14.32;;;11.00;;
22646;SDS011;11490;42.726;23.268;2023-05-21T04:53:48;15.13;;;9.63;;
22646;SDS011;11490;42.726;23.268;2023-05-21T04:56:17;13.75;;;8.55;;
22646;SDS011;11490;42.726;23.268;2023-05-21T04:58:43;15.35;;;8.38;;
22646;SDS011;11490;42.726;23.268;2023-05-21T05:01:12;12.77;;;7.78;;
22646;SDS011;11490;42.726;23.268;2023-05-21T05:03:38;12.65;;;7.85;;
22646;SDS011;11490;42.726;23.268;2023-05-21T05:06:03;12.70;;;7.43;;
22646;SDS011;11490;42.726;23.268;2023-05-21T05:08:29;10.02;;;7.05;;
22646;SDS011;11490;42.726;23.268;2023-05-21T05:10:55;10.73;;;6.45;;
22646;SDS011;11490;42.726;23.268;2023-05-21T05:13:20;12.80;;;6.38;;
22646;SDS011;11490;42.726;23.268;2023-05-21T05:15:46;11.43;;;6.13;;
22646;SDS011;11490;42.726;23.268;2023-05-21T05:18:12;11.07;;;6.00;;
22646;SDS011;11490;42.726;23.268;2023-05-21T05:20:37;8.75;;;5.78;;
22646;SDS011;11490;42.726;23.268;2023-05-21T05:23:03;9.80;;;6.10;;
22646;SDS011;11490;42.726;23.268;2023-05-21T05:25:28;13.20;;;6.25;;
22646;SDS011;11490;42.726;23.268;2023-05-21T05:27:54;9.68;;;5.60;;
22646;SDS011;11490;42.726;23.268;2023-05-21T05:30:19;10.60;;;5.68;;
22646;SDS011;11490;42.726;23.268;2023-05-21T05:32:44;13.43;;;5.80;;
22646;SDS011;11490;42.726;23.268;2023-05-21T05:35:10;8.30;;;5.50;;
22646;SDS011;11490;42.726;23.268;2023-05-21T05:37:36;8.00;;;5.72;;
22646;SDS011;11490;42.726;23.268;2023-05-21T05:40:01;9.02;;;5.38;;
22646;SDS011;11490;42.726;23.268;2023-05-21T05:42:28;13.15;;;6.28;;
22646;SDS011;11490;42.726;23.268;2023-05-21T05:44:53;10.30;;;5.40;;
22646;SDS011;11490;42.726;23.268;2023-05-21T05:47:19;9.68;;;5.28;;
22646;SDS011;11490;42.726;23.268;2023-05-21T05:49:45;13.98;;;5.22;;
22646;SDS011;11490;42.726;23.268;2023-05-21T05:52:11;11.57;;;5.05;;
22646;SDS011;11490;42.726;23.268;2023-05-21T05:54:36;6.57;;;4.63;;
22646;SDS011;11490;42.726;23.268;2023-05-21T05:57:02;5.95;;;5.05;;
22646;SDS011;11490;42.726;23.268;2023-05-21T05:59:27;7.35;;;5.32;;
22646;SDS011;11490;42.726;23.268;2023-05-21T06:01:52;8.18;;;5.13;;
22646;SDS011;11490;42.726;23.268;2023-05-21T06:04:18;9.68;;;4.85;;
22646;SDS011;11490;42.726;23.268;2023-05-21T06:06:43;7.25;;;5.10;;
22646;SDS011;11490;42.726;23.268;2023-05-21T06:09:08;10.07;;;5.03;;
22646;SDS011;11490;42.726;23.268;2023-05-21T06:11:34;7.38;;;5.47;;
22646;SDS011;11490;42.726;23.268;2023-05-21T06:13:59;7.82;;;5.03;;
22646;SDS011;11490;42.726;23.268;2023-05-21T06:16:25;8.02;;;5.32;;
22646;SDS011;11490;42.726;23.268;2023-05-21T06:18:50;6.63;;;4.90;;
22646;SDS011;11490;42.726;23.268;2023-05-21T06:21:16;7.72;;;5.05;;
22646;SDS011;11490;42.726;23.268;2023-05-21T06:23:41;6.78;;;4.40;;
22646;SDS011;11490;42.726;23.268;2023-05-21T06:26:06;6.22;;;4.20;;
22646;SDS011;11490;42.726;23.268;2023-05-21T06:28:32;6.25;;;4.53;;
22646;SDS011;11490;42.726;23.268;2023-05-21T06:30:57;8.88;;;5.13;;
22646;SDS011;11490;42.726;23.268;2023-05-21T06:33:22;7.82;;;4.97;;
22646;SDS011;11490;42.726;23.268;2023-05-21T06:35:48;7.00;;;4.65;;
22646;SDS011;11490;42.726;23.268;2023-05-21T06:38:13;9.25;;;5.00;;
22646;SDS011;11490;42.726;23.268;2023-05-21T06:40:38;7.07;;;4.68;;
22646;SDS011;11490;42.726;23.268;2023-05-21T06:43:04;7.70;;;4.65;;
22646;SDS011;11490;42.726;23.268;2023-05-21T06:45:29;6.45;;;4.85;;
22646;SDS011;11490;42.726;23.268;2023-05-21T06:47:55;8.43;;;4.53;;
22646;SDS011;11490;42.726;23.268;2023-05-21T06:50:20;8.95;;;3.85;;
22646;SDS011;11490;42.726;23.268;2023-05-21T06:52:45;6.40;;;4.53;;
22646;SDS011;11490;42.726;23.268;2023-05-21T06:55:11;5.53;;;3.60;;
22646;SDS011;11490;42.726;23.268;2023-05-21T06:57:37;5.78;;;4.35;;
22646;SDS011;11490;42.726;23.268;2023-05-21T07:00:03;6.35;;;4.25;;
22646;SDS011;11490;42.726;23.268;2023-05-21T07:02:29;6.75;;;4.40;;
22646;SDS011;11490;42.726;23.268;2023-05-21T07:04:54;6.85;;;4.53;;
22646;SDS011;11490;42.726;23.268;2023-05-21T07:07:20;6.82;;;5.03;;
22646;SDS011;11490;42.726;23.268;2023-05-21T07:09:46;7.50;;;5.03;;
22646;SDS011;11490;42.726;23.268;2023-05-21T07:12:11;6.65;;;4.95;;
22646;SDS011;11490;42.726;23.268;2023-05-21T07:14:36;6.80;;;4.50;;
22646;SDS011;11490;42.726;23.268;2023-05-21T07:17:03;6.47;;;4.38;;
22646;SDS011;11490;42.726;23.268;2023-05-21T07:19:28;6.38;;;4.20;;
22646;SDS011;11490;42.726;23.268;2023-05-21T07:21:54;8.02;;;4.47;;
22646;SDS011;11490;42.726;23.268;2023-05-21T07:24:20;5.60;;;3.75;;
22646;SDS011;11490;42.726;23.268;2023-05-21T07:26:45;7.50;;;4.32;;
22646;SDS011;11490;42.726;23.268;2023-05-21T07:29:11;6.65;;;4.25;;
22646;SDS011;11490;42.726;23.268;2023-05-21T07:31:36;5.70;;;4.13;;
22646;SDS011;11490;42.726;23.268;2023-05-21T07:34:02;5.30;;;3.35;;
22646;SDS011;11490;42.726;23.268;2023-05-21T07:36:27;8.77;;;3.17;;
22646;SDS011;11490;42.726;23.268;2023-05-21T07:38:53;4.95;;;3.22;;
22646;SDS011;11490;42.726;23.268;2023-05-21T07:41:18;9.00;;;3.90;;
22646;SDS011;11490;42.726;23.268;2023-05-21T07:43:44;7.20;;;4.32;;
22646;SDS011;11490;42.726;23.268;2023-05-21T07:46:09;7.88;;;3.17;;
22646;SDS011;11490;42.726;23.268;2023-05-21T07:48:35;6.45;;;3.63;;
22646;SDS011;11490;42.726;23.268;2023-05-21T07:51:01;4.18;;;3.03;;
22646;SDS011;11490;42.726;23.268;2023-05-21T07:53:29;7.30;;;3.80;;
22646;SDS011;11490;42.726;23.268;2023-05-21T07:55:56;4.85;;;3.58;;
22646;SDS011;11490;42.726;23.268;2023-05-21T07:58:22;5.53;;;3.33;;
22646;SDS011;11490;42.726;23.268;2023-05-21T08:00:47;9.10;;;3.15;;
22646;SDS011;11490;42.726;23.268;2023-05-21T08:03:15;4.68;;;3.38;;
22646;SDS011;11490;42.726;23.268;2023-05-21T08:05:41;5.47;;;3.42;;
22646;SDS011;11490;42.726;23.268;2023-05-21T08:08:12;7.13;;;3.28;;
22646;SDS011;11490;42.726;23.268;2023-05-21T08:10:38;12.05;;;3.25;;
22646;SDS011;11490;42.726;23.268;2023-05-21T08:13:10;5.68;;;3.20;;
22646;SDS011;11490;42.726;23.268;2023-05-21T08:15:35;6.95;;;3.20;;
22646;SDS011;11490;42.726;23.268;2023-05-21T08:18:01;9.27;;;4.78;;
22646;SDS011;11490;42.726;23.268;2023-05-21T08:20:26;4.05;;;3.20;;
22646;SDS011;11490;42.726;23.268;2023-05-21T08:22:53;11.00;;;3.35;;
22646;SDS011;11490;42.726;23.268;2023-05-21T08:25:18;4.47;;;2.83;;
22646;SDS011;11490;42.726;23.268;2023-05-21T08:27:44;4.15;;;2.58;;
22646;SDS011;11490;42.726;23.268;2023-05-21T08:30:09;4.80;;;2.75;;
22646;SDS011;11490;42.726;23.268;2023-05-21T08:32:35;9.25;;;2.80;;
22646;SDS011;11490;42.726;23.268;2023-05-21T08:35:01;3.83;;;2.22;;
22646;SDS011;11490;42.726;23.268;2023-05-21T08:37:36;14.75;;;2.83;;
22646;SDS011;11490;42.726;23.268;2023-05-21T08:40:01;5.90;;;2.67;;
22646;SDS011;11490;42.726;23.268;2023-05-21T08:42:45;6.45;;;2.78;;
22646;SDS011;11490;42.726;23.268;2023-05-21T08:45:12;3.35;;;2.38;;
22646;SDS011;11490;42.726;23.268;2023-05-21T08:47:42;10.32;;;2.97;;
22646;SDS011;11490;42.726;23.268;2023-05-21T08:50:12;5.43;;;2.28;;
22646;SDS011;11490;42.726;23.268;2023-05-21T08:52:39;5.13;;;3.13;;
22646;SDS011;11490;42.726;23.268;2023-05-21T08:55:05;10.75;;;2.72;;
22646;SDS011;11490;42.726;23.268;2023-05-21T08:57:32;3.17;;;2.28;;
22646;SDS011;11490;42.726;23.268;2023-05-21T08:59:59;4.75;;;2.15;;
22646;SDS011;11490;42.726;23.268;2023-05-21T09:02:26;3.80;;;2.38;;
22646;SDS011;11490;42.726;23.268;2023-05-21T09:04:54;3.20;;;1.92;;
22646;SDS011;11490;42.726;23.268;2023-05-21T09:07:23;3.42;;;1.80;;
22646;SDS011;11490;42.726;23.268;2023-05-21T09:09:55;6.28;;;2.60;;
22646;SDS011;11490;42.726;23.268;2023-05-21T09:12:33;3.83;;;2.50;;
22646;SDS011;11490;42.726;23.268;2023-05-21T09:14:59;3.60;;;2.05;;
22646;SDS011;11490;42.726;23.268;2023-05-21T09:17:25;4.68;;;2.40;;
22646;SDS011;11490;42.726;23.268;2023-05-21T09:22:44;2.83;;;1.98;;
22646;SDS011;11490;42.726;23.268;2023-05-21T09:25:12;6.90;;;2.53;;
22646;SDS011;11490;42.726;23.268;2023-05-21T09:27:39;2.38;;;1.90;;
22646;SDS011;11490;42.726;23.268;2023-05-21T09:30:08;3.30;;;2.00;;
22646;SDS011;11490;42.726;23.268;2023-05-21T09:32:36;3.30;;;2.10;;
22646;SDS011;11490;42.726;23.268;2023-05-21T09:35:12;7.63;;;2.47;;
22646;SDS011;11490;42.726;23.268;2023-05-21T09:37:39;4.30;;;2.95;;
22646;SDS011;11490;42.726;23.268;2023-05-21T09:40:14;10.55;;;2.25;;
22646;SDS011;11490;42.726;23.268;2023-05-21T09:42:45;7.30;;;3.05;;
22646;SDS011;11490;42.726;23.268;2023-05-21T09:45:12;7.32;;;2.72;;
22646;SDS011;11490;42.726;23.268;2023-05-21T09:47:49;5.07;;;2.38;;
22646;SDS011;11490;42.726;23.268;2023-05-21T09:50:19;4.10;;;2.75;;
22646;SDS011;11490;42.726;23.268;2023-05-21T09:52:48;3.45;;;2.17;;
22646;SDS011;11490;42.726;23.268;2023-05-21T09:55:27;4.53;;;2.67;;
22646;SDS011;11490;42.726;23.268;2023-05-21T09:57:52;3.53;;;2.35;;
22646;SDS011;11490;42.726;23.268;2023-05-21T10:00:18;3.15;;;1.90;;
22646;SDS011;11490;42.726;23.268;2023-05-21T10:02:46;5.05;;;2.20;;
22646;SDS011;11490;42.726;23.268;2023-05-21T10:05:14;5.97;;;2.70;;
22646;SDS011;11490;42.726;23.268;2023-05-21T10:07:40;4.45;;;1.95;;
22646;SDS011;11490;42.726;23.268;2023-05-21T10:10:07;3.83;;;2.53;;
22646;SDS011;11490;42.726;23.268;2023-05-21T10:12:38;4.32;;;2.58;;
22646;SDS011;11490;42.726;23.268;2023-05-21T10:15:10;6.70;;;3.10;;
22646;SDS011;11490;42.726;23.268;2023-05-21T10:17:38;4.10;;;2.50;;
22646;SDS011;11490;42.726;23.268;2023-05-21T10:20:05;5.70;;;2.42;;
22646;SDS011;11490;42.726;23.268;2023-05-21T10:22:32;4.97;;;2.33;;
22646;SDS011;11490;42.726;23.268;2023-05-21T10:25:00;3.33;;;2.05;;
22646;SDS011;11490;42.726;23.268;2023-05-21T10:27:27;8.65;;;2.70;;
22646;SDS011;11490;42.726;23.268;2023-05-21T10:29:58;3.50;;;2.25;;
22646;SDS011;11490;42.726;23.268;2023-05-21T10:32:24;4.57;;;2.25;;
22646;SDS011;11490;42.726;23.268;2023-05-21T10:34:51;3.70;;;2.33;;
22646;SDS011;11490;42.726;23.268;2023-05-21T10:37:18;3.38;;;2.10;;
22646;SDS011;11490;42.726;23.268;2023-05-21T10:39:47;4.95;;;3.00;;
22646;SDS011;11490;42.726;23.268;2023-05-21T10:53:27;5.82;;;3.28;;
22646;SDS011;11490;42.726;23.268;2023-05-21T10:59:19;9.13;;;2.42;;
22646;SDS011;11490;42.726;23.268;2023-05-21T11:01:57;3.35;;;2.17;;
22646;SDS011;11490;42.726;23.268;2023-05-21T11:04:27;4.43;;;2.28;;
22646;SDS011;11490;42.726;23.268;2023-05-21T11:06:53;3.58;;;2.47;;
22646;SDS011;11490;42.726;23.268;2023-05-21T11:09:20;3.83;;;2.10;;
22646;SDS011;11490;42.726;23.268;2023-05-21T11:11:52;9.10;;;2.78;;
22646;SDS011;11490;42.726;23.268;2023-05-21T11:17:10;5.38;;;3.25;;
22646;SDS011;11490;42.726;23.268;2023-05-21T11:20:03;3.40;;;2.10;;
22646;SDS011;11490;42.726;23.268;2023-05-21T11:22:32;3.17;;;2.20;;
22646;SDS011;11490;42.726;23.268;2023-05-21T11:25:00;3.67;;;2.40;;
22646;SDS011;11490;42.726;23.268;2023-05-21T11:30:05;4.57;;;2.28;;
22646;SDS011;11490;42.726;23.268;2023-05-21T11:32:38;6.18;;;2.97;;
22646;SDS011;11490;42.726;23.268;2023-05-21T11:35:26;4.95;;;2.63;;
22646;SDS011;11490;42.726;23.268;2023-05-21T11:37:52;4.82;;;2.85;;
22646;SDS011;11490;42.726;23.268;2023-05-21T11:40:24;5.30;;;2.85;;
22646;SDS011;11490;42.726;23.268;2023-05-21T11:42:54;6.28;;;2.00;;
22646;SDS011;11490;42.726;23.268;2023-05-21T11:45:21;9.10;;;2.80;;
22646;SDS011;11490;42.726;23.268;2023-05-21T11:47:53;4.32;;;2.35;;
22646;SDS011;11490;42.726;23.268;2023-05-21T11:50:20;4.32;;;2.58;;
22646;SDS011;11490;42.726;23.268;2023-05-21T11:52:45;4.43;;;2.28;;
22646;SDS011;11490;42.726;23.268;2023-05-21T11:55:11;4.82;;;3.10;;
22646;SDS011;11490;42.726;23.268;2023-05-21T11:57:40;13.60;;;2.95;;
22646;SDS011;11490;42.726;23.268;2023-05-21T12:00:11;4.07;;;2.70;;
22646;SDS011;11490;42.726;23.268;2023-05-21T12:02:42;5.20;;;2.55;;
22646;SDS011;11490;42.726;23.268;2023-05-21T12:05:12;7.07;;;3.15;;
22646;SDS011;11490;42.726;23.268;2023-05-21T12:07:38;5.00;;;2.45;;
22646;SDS011;11490;42.726;23.268;2023-05-21T12:10:03;4.30;;;2.88;;
22646;SDS011;11490;42.726;23.268;2023-05-21T12:12:30;6.55;;;3.05;;
22646;SDS011;11490;42.726;23.268;2023-05-21T12:14:55;4.30;;;2.50;;
22646;SDS011;11490;42.726;23.268;2023-05-21T12:17:22;5.32;;;2.97;;
22646;SDS011;11490;42.726;23.268;2023-05-21T12:19:52;3.65;;;2.30;;
22646;SDS011;11490;42.726;23.268;2023-05-21T12:22:19;6.47;;;2.78;;
22646;SDS011;11490;42.726;23.268;2023-05-21T12:24:46;5.70;;;3.08;;
22646;SDS011;11490;42.726;23.268;2023-05-21T12:27:12;6.43;;;2.67;;
22646;SDS011;11490;42.726;23.268;2023-05-21T12:29:44;4.80;;;3.00;;
22646;SDS011;11490;42.726;23.268;2023-05-21T12:32:11;5.72;;;3.42;;
22646;SDS011;11490;42.726;23.268;2023-05-21T12:34:41;5.07;;;2.85;;
22646;SDS011;11490;42.726;23.268;2023-05-21T12:37:15;5.20;;;3.58;;
22646;SDS011;11490;42.726;23.268;2023-05-21T12:39:44;4.00;;;2.97;;
22646;SDS011;11490;42.726;23.268;2023-05-21T12:42:14;5.75;;;2.78;;
22646;SDS011;11490;42.726;23.268;2023-05-21T12:44:43;4.50;;;2.95;;
22646;SDS011;11490;42.726;23.268;2023-05-21T12:47:10;4.25;;;2.90;;
22646;SDS011;11490;42.726;23.268;2023-05-21T12:49:38;4.65;;;2.83;;
22646;SDS011;11490;42.726;23.268;2023-05-21T12:52:09;6.28;;;3.42;;
22646;SDS011;11490;42.726;23.268;2023-05-21T12:54:36;7.53;;;2.97;;
22646;SDS011;11490;42.726;23.268;2023-05-21T12:57:09;4.78;;;3.05;;
22646;SDS011;11490;42.726;23.268;2023-05-21T12:59:59;6.78;;;2.80;;
22646;SDS011;11490;42.726;23.268;2023-05-21T13:02:28;6.45;;;3.08;;
22646;SDS011;11490;42.726;23.268;2023-05-21T13:04:56;4.75;;;3.63;;
22646;SDS011;11490;42.726;23.268;2023-05-21T13:07:23;4.68;;;2.95;;
22646;SDS011;11490;42.726;23.268;2023-05-21T13:09:50;4.97;;;2.88;;
22646;SDS011;11490;42.726;23.268;2023-05-21T13:12:23;5.72;;;4.03;;
22646;SDS011;11490;42.726;23.268;2023-05-21T13:14:50;4.88;;;3.25;;
22646;SDS011;11490;42.726;23.268;2023-05-21T13:17:20;4.03;;;2.88;;
22646;SDS011;11490;42.726;23.268;2023-05-21T13:22:36;6.97;;;3.40;;
22646;SDS011;11490;42.726;23.268;2023-05-21T13:25:05;8.43;;;3.80;;
22646;SDS011;11490;42.726;23.268;2023-05-21T13:27:31;5.35;;;3.00;;
22646;SDS011;11490;42.726;23.268;2023-05-21T13:29:57;7.75;;;4.47;;
22646;SDS011;11490;42.726;23.268;2023-05-21T13:32:22;6.38;;;3.58;;
22646;SDS011;11490;42.726;23.268;2023-05-21T13:34:48;5.05;;;2.72;;
22646;SDS011;11490;42.726;23.268;2023-05-21T13:37:13;8.13;;;3.53;;
22646;SDS011;11490;42.726;23.268;2023-05-21T13:39:40;5.15;;;3.15;;
22646;SDS011;11490;42.726;23.268;2023-05-21T13:42:06;4.20;;;3.20;;
22646;SDS011;11490;42.726;23.268;2023-05-21T13:44:33;7.28;;;3.53;;
22646;SDS011;11490;42.726;23.268;2023-05-21T13:47:02;10.23;;;3.80;;
22646;SDS011;11490;42.726;23.268;2023-05-21T13:49:27;5.38;;;3.17;;
22646;SDS011;11490;42.726;23.268;2023-05-21T13:51:53;7.30;;;3.28;;
22646;SDS011;11490;42.726;23.268;2023-05-21T13:54:18;7.70;;;3.33;;
22646;SDS011;11490;42.726;23.268;2023-05-21T13:56:43;5.32;;;2.72;;
22646;SDS011;11490;42.726;23.268;2023-05-21T13:59:09;7.18;;;3.00;;
22646;SDS011;11490;42.726;23.268;2023-05-21T14:01:34;8.13;;;3.53;;
22646;SDS011;11490;42.726;23.268;2023-05-21T14:04:00;7.82;;;3.70;;
22646;SDS011;11490;42.726;23.268;2023-05-21T14:06:28;5.22;;;2.97;;
22646;SDS011;11490;42.726;23.268;2023-05-21T14:08:55;5.47;;;3.20;;
22646;SDS011;11490;42.726;23.268;2023-05-21T14:11:21;4.10;;;3.10;;
22646;SDS011;11490;42.726;23.268;2023-05-21T14:13:47;10.90;;;3.83;;
22646;SDS011;11490;42.726;23.268;2023-05-21T14:16:12;5.40;;;2.67;;
22646;SDS011;11490;42.726;23.268;2023-05-21T14:18:37;5.65;;;2.83;;
22646;SDS011;11490;42.726;23.268;2023-05-21T14:21:03;4.40;;;3.08;;
22646;SDS011;11490;42.726;23.268;2023-05-21T14:23:28;5.15;;;3.40;;
22646;SDS011;11490;42.726;23.268;2023-05-21T14:25:53;4.97;;;3.20;;
22646;SDS011;11490;42.726;23.268;2023-05-21T14:28:19;11.70;;;3.15;;
22646;SDS011;11490;42.726;23.268;2023-05-21T14:30:44;6.63;;;3.35;;
22646;SDS011;11490;42.726;23.268;2023-05-21T14:33:09;4.88;;;3.33;;
22646;SDS011;11490;42.726;23.268;2023-05-21T14:35:37;6.80;;;3.22;;
22646;SDS011;11490;42.726;23.268;2023-05-21T14:38:02;3.88;;;2.72;;
22646;SDS011;11490;42.726;23.268;2023-05-21T14:40:28;4.78;;;3.55;;
22646;SDS011;11490;42.726;23.268;2023-05-21T14:42:53;10.48;;;3.83;;
22646;SDS011;11490;42.726;23.268;2023-05-21T14:45:20;5.75;;;3.08;;
22646;SDS011;11490;42.726;23.268;2023-05-21T14:47:45;12.27;;;2.95;;
22646;SDS011;11490;42.726;23.268;2023-05-21T14:50:11;5.53;;;3.25;;
22646;SDS011;11490;42.726;23.268;2023-05-21T14:52:37;4.43;;;2.78;;
22646;SDS011;11490;42.726;23.268;2023-05-21T14:55:03;5.93;;;3.08;;
22646;SDS011;11490;42.726;23.268;2023-05-21T14:57:29;4.43;;;2.58;;
22646;SDS011;11490;42.726;23.268;2023-05-21T14:59:54;4.88;;;2.65;;